createdAt,value
2022-11-05T00:01:17.787Z,90.71
2022-11-05T00:04:05.497Z,90.89
2022-11-05T00:06:53.551Z,88.01
2022-11-05T00:09:31.920Z,86.79
2022-11-05T00:12:24.263Z,86.77
2022-11-05T00:15:12.107Z,87.82
2022-11-05T00:17:41.737Z,89.84
2022-11-05T00:20:14.570Z,90.14
2022-11-05T00:23:02.913Z,89.30
2022-11-05T00:25:32.416Z,87.78
2022-11-05T00:28:02.666Z,87.49
2022-11-05T00:30:32.581Z,87.69
2022-11-05T00:33:03.595Z,87.48
2022-11-05T00:35:32.648Z,87.64
2022-11-05T00:38:02.118Z,88.15
2022-11-05T00:40:32.024Z,87.71
2022-11-05T00:43:21.002Z,87.21
2022-11-05T00:45:50.579Z,87.28
2022-11-05T00:48:37.839Z,88.33
2022-11-05T00:51:07.786Z,89.08
2022-11-05T00:53:37.376Z,89.67
2022-11-05T00:56:07.245Z,89.77
2022-11-05T00:58:37.062Z,90.01
2022-11-05T01:01:06.251Z,90.05
2022-11-05T01:03:37.200Z,89.75
2022-11-05T01:06:12.635Z,88.59
2022-11-05T01:08:42.644Z,88.43
2022-11-05T01:11:34.400Z,88.03
2022-11-05T01:14:06.551Z,88.39
2022-11-05T01:16:37.201Z,89.44
2022-11-05T01:19:08.069Z,90.13
2022-11-05T01:21:37.859Z,90.88
2022-11-05T01:24:08.082Z,92.23
2022-11-05T01:26:38.068Z,91.55
2022-11-05T01:29:09.093Z,90.81
2022-11-05T01:31:39.672Z,91.67
2022-11-05T01:34:09.345Z,90.23
2022-11-05T01:36:40.111Z,88.95
2022-11-05T01:39:09.805Z,89.38
2022-11-05T01:41:39.385Z,92.66
2022-11-05T01:44:27.818Z,93.25
2022-11-05T01:46:57.622Z,93.11
2022-11-05T01:49:34.632Z,90.85
2022-11-05T01:52:05.391Z,92.84
2022-11-05T01:54:35.498Z,90.70
2022-11-05T01:57:07.544Z,90.87
2022-11-05T01:59:41.860Z,89.36
2022-11-05T02:02:11.386Z,90.70
2022-11-05T02:04:44.346Z,90.91
2022-11-05T02:07:16.656Z,91.38
2022-11-05T02:10:02.820Z,90.81
2022-11-05T02:12:33.775Z,91.30
2022-11-05T02:15:03.884Z,91.84
2022-11-05T02:17:36.473Z,92.79
2022-11-05T02:20:16.273Z,92.50
2022-11-05T02:22:46.744Z,92.27
2022-11-05T02:25:40.110Z,92.78
2022-11-05T02:28:29.361Z,93.04
2022-11-05T02:31:18.631Z,91.89
2022-11-05T02:33:58.417Z,92.06
2022-11-05T02:36:44.883Z,92.05
2022-11-05T02:39:32.780Z,92.00
2022-11-05T02:42:05.249Z,94.42
2022-11-05T02:44:34.706Z,92.82
2022-11-05T02:47:12.880Z,91.05
2022-11-05T02:49:57.021Z,91.48
2022-11-05T02:52:37.253Z,90.72
2022-11-05T02:55:07.562Z,92.26
2022-11-05T02:57:37.929Z,93.72
2022-11-05T03:00:10.297Z,93.57
2022-11-05T03:02:40.770Z,92.86
2022-11-05T03:05:10.262Z,93.79
2022-11-05T03:07:47.652Z,91.33
2022-11-05T03:10:27.228Z,91.60
2022-11-05T03:13:23.640Z,91.28
2022-11-05T03:15:56.612Z,91.91
2022-11-05T03:18:29.288Z,92.90
2022-11-05T03:21:14.523Z,92.88
2022-11-05T03:24:02.885Z,93.49
2022-11-05T03:26:39.512Z,94.27
2022-11-05T03:29:15.544Z,95.90
2022-11-05T03:31:46.690Z,94.20
2022-11-05T03:34:18.850Z,92.94
2022-11-05T03:36:51.255Z,93.43
2022-11-05T03:39:27.786Z,91.70
2022-11-05T03:41:58.048Z,91.23
2022-11-05T03:44:31.126Z,91.56
2022-11-05T03:47:07.053Z,92.16
2022-11-05T03:49:39.726Z,92.67
2022-11-05T03:52:17.637Z,93.59
2022-11-05T03:54:47.557Z,92.18
2022-11-05T03:57:17.035Z,91.59
2022-11-05T03:59:48.206Z,91.64
2022-11-05T04:02:19.835Z,93.32
2022-11-05T04:04:50.004Z,95.20
2022-11-05T04:07:38.013Z,95.84
2022-11-05T04:10:26.199Z,95.75
2022-11-05T04:13:14.362Z,96.07
2022-11-05T04:16:02.735Z,95.66
2022-11-05T04:18:31.520Z,95.83
2022-11-05T04:21:19.039Z,95.13
2022-11-05T04:24:07.001Z,92.51
2022-11-05T04:26:37.001Z,91.71
2022-11-05T04:29:24.727Z,92.75
2022-11-05T04:31:53.728Z,95.58
2022-11-05T04:34:23.124Z,95.89
2022-11-05T04:36:53.761Z,96.71
2022-11-05T04:39:23.055Z,96.36
2022-11-05T04:41:53.088Z,93.43
2022-11-05T04:44:21.978Z,92.80
2022-11-05T04:46:50.854Z,92.95
2022-11-05T04:49:20.347Z,93.33
2022-11-05T04:51:49.788Z,94.49
2022-11-05T04:54:19.662Z,95.79
2022-11-05T04:56:49.631Z,95.03
2022-11-05T04:59:18.887Z,95.02
2022-11-05T05:01:51.821Z,93.97
2022-11-05T05:04:21.178Z,93.21
2022-11-05T05:06:49.764Z,92.79
2022-11-05T05:09:18.243Z,92.77
2022-11-05T05:11:47.225Z,93.07
2022-11-05T05:14:16.422Z,93.87
2022-11-05T05:16:45.206Z,95.54
2022-11-05T05:19:13.997Z,95.83
2022-11-05T05:21:42.899Z,95.21
2022-11-05T05:24:13.473Z,95.19
2022-11-05T05:26:43.647Z,96.29
2022-11-05T05:29:12.844Z,97.05
2022-11-05T05:31:41.633Z,95.98
2022-11-05T05:34:13.495Z,95.72
2022-11-05T05:36:42.292Z,94.62
2022-11-05T05:39:13.927Z,94.73
2022-11-05T05:41:43.132Z,95.23
2022-11-05T05:44:11.914Z,95.42
2022-11-05T05:46:40.911Z,94.70
2022-11-05T05:49:12.603Z,93.84
2022-11-05T05:51:41.769Z,93.57
2022-11-05T05:54:11.275Z,93.31
2022-11-05T05:56:39.654Z,93.98
2022-11-05T05:59:08.423Z,94.65
2022-11-05T06:01:36.908Z,95.32
2022-11-05T06:04:05.815Z,95.33
2022-11-05T06:06:34.387Z,95.44
2022-11-05T06:09:02.868Z,95.57
2022-11-05T06:11:31.746Z,95.75
2022-11-05T06:14:00.479Z,95.63
2022-11-05T06:16:29.948Z,95.80
2022-11-05T06:18:58.425Z,95.94
2022-11-05T06:21:27.110Z,94.68
2022-11-05T06:23:56.002Z,93.33
2022-11-05T06:26:24.783Z,92.79
2022-11-05T06:28:53.474Z,95.02
2022-11-05T06:31:21.981Z,95.98
2022-11-05T06:33:50.942Z,95.51
2022-11-05T06:36:20.016Z,95.38
2022-11-05T06:38:48.627Z,95.50
2022-11-05T06:41:17.214Z,94.13
2022-11-05T06:43:45.692Z,92.97
2022-11-05T06:46:14.270Z,93.19
2022-11-05T06:48:42.746Z,93.11
2022-11-05T06:51:11.130Z,93.35
2022-11-05T06:53:40.024Z,93.60
2022-11-05T06:56:08.565Z,93.66
2022-11-05T06:58:37.495Z,93.32
2022-11-05T07:01:08.844Z,94.02
2022-11-05T07:03:37.880Z,94.02
2022-11-05T07:06:07.574Z,92.84
2022-11-05T07:08:37.560Z,91.92
2022-11-05T07:11:06.463Z,91.83
2022-11-05T07:13:34.934Z,92.70
2022-11-05T07:16:03.820Z,91.71
2022-11-05T07:18:32.301Z,90.98
2022-11-05T07:21:01.297Z,90.77
2022-11-05T07:23:29.875Z,90.60
2022-11-05T07:25:59.849Z,91.44
2022-11-05T07:28:28.168Z,91.58
2022-11-05T07:30:58.801Z,90.94
2022-11-05T07:33:30.078Z,90.21
2022-11-05T07:36:01.502Z,89.50
2022-11-05T07:38:30.076Z,89.20
2022-11-05T07:41:01.632Z,89.55
2022-11-05T07:43:30.319Z,89.25
2022-11-05T07:45:59.320Z,88.78
2022-11-05T07:48:27.896Z,89.01
2022-11-05T07:50:57.194Z,89.12
2022-11-05T07:53:25.679Z,89.20
2022-11-05T07:55:54.667Z,89.30
2022-11-05T07:58:23.250Z,89.22
2022-11-05T08:00:51.830Z,88.12
2022-11-05T08:03:20.960Z,88.02
2022-11-05T08:05:50.270Z,87.22
2022-11-05T08:08:19.999Z,87.06
2022-11-05T08:10:48.524Z,87.06
2022-11-05T08:13:17.615Z,86.92
2022-11-05T08:15:46.000Z,86.82
2022-11-05T08:18:15.716Z,85.93
2022-11-05T08:20:45.210Z,86.14
2022-11-05T08:23:14.587Z,85.31
2022-11-05T08:25:43.820Z,85.39
2022-11-05T08:28:13.314Z,85.50
2022-11-05T08:30:42.000Z,85.32
2022-11-05T08:33:12.314Z,85.18
2022-11-05T08:35:41.624Z,84.46
2022-11-05T08:38:14.105Z,84.20
2022-11-05T08:40:44.008Z,83.99
2022-11-05T08:43:14.570Z,84.12
2022-11-05T08:45:43.329Z,83.05
2022-11-05T08:48:15.910Z,82.56
2022-11-05T08:50:45.406Z,82.33
2022-11-05T08:53:14.705Z,81.25
2022-11-05T08:55:44.418Z,82.54
2022-11-05T08:58:15.562Z,82.21
2022-11-05T09:00:47.890Z,81.90
2022-11-05T09:03:16.722Z,81.30
2022-11-05T09:05:45.609Z,80.39
2022-11-05T09:08:18.087Z,81.71
2022-11-05T09:10:47.297Z,82.50
2022-11-05T09:13:19.477Z,82.74
2022-11-05T09:15:49.771Z,82.77
2022-11-05T09:18:19.072Z,83.07
2022-11-05T09:20:47.763Z,81.80
2022-11-05T09:23:16.447Z,82.21
2022-11-05T09:25:44.918Z,82.06
2022-11-05T09:28:20.609Z,81.16
2022-11-05T09:30:50.497Z,80.70
2022-11-05T09:33:20.103Z,78.28
2022-11-05T09:35:48.782Z,79.62
2022-11-05T09:38:17.261Z,77.91
2022-11-05T09:40:55.060Z,77.39
2022-11-05T09:43:31.434Z,78.96
2022-11-05T09:46:03.287Z,79.02
2022-11-05T09:48:32.993Z,79.33
2022-11-05T09:51:01.786Z,78.52
2022-11-05T09:53:30.165Z,76.70
2022-11-05T09:56:00.688Z,76.57
2022-11-05T09:58:39.821Z,76.12
2022-11-05T10:01:12.614Z,75.57
2022-11-05T10:03:46.507Z,75.64
2022-11-05T10:06:20.271Z,76.95
2022-11-05T10:09:12.250Z,75.15
2022-11-05T10:12:04.028Z,75.21
2022-11-05T10:14:36.960Z,74.99
2022-11-05T10:17:09.641Z,75.40
2022-11-05T10:19:48.154Z,75.24
2022-11-05T10:22:18.063Z,74.04
2022-11-05T10:24:48.084Z,72.14
2022-11-05T10:27:28.762Z,72.98
2022-11-05T10:29:57.485Z,71.03
2022-11-05T10:32:29.602Z,71.03
2022-11-05T10:35:00.134Z,71.21
2022-11-05T10:37:29.349Z,70.84
2022-11-05T10:39:58.333Z,71.27
2022-11-05T10:42:26.803Z,70.23
2022-11-05T10:44:58.354Z,69.57
2022-11-05T10:47:50.330Z,69.24
2022-11-05T10:50:20.069Z,69.37
2022-11-05T10:52:48.585Z,69.63
2022-11-05T10:55:29.467Z,66.20
2022-11-05T10:58:08.781Z,65.32
2022-11-05T11:00:37.643Z,61.94
2022-11-05T11:03:26.221Z,60.32
2022-11-05T11:06:01.479Z,61.13
2022-11-05T11:08:31.172Z,61.41
2022-11-05T11:11:02.524Z,62.37
2022-11-05T11:13:49.643Z,62.32
2022-11-05T11:16:23.040Z,61.68
2022-11-05T11:19:01.449Z,61.49
2022-11-05T11:21:31.159Z,61.95
2022-11-05T11:24:02.530Z,61.63
2022-11-05T11:26:35.802Z,59.45
2022-11-05T11:29:22.869Z,59.36
2022-11-05T11:31:55.291Z,60.29
2022-11-05T11:34:34.731Z,59.63
2022-11-05T11:37:07.529Z,59.36
2022-11-05T11:39:37.426Z,59.66
2022-11-05T11:42:12.868Z,58.39
2022-11-05T11:44:43.604Z,57.82
2022-11-05T11:47:14.027Z,58.33
2022-11-05T11:49:42.517Z,58.84
2022-11-05T11:52:13.350Z,58.14
2022-11-05T11:54:42.033Z,58.02
2022-11-05T11:57:24.103Z,58.48
2022-11-05T12:00:08.179Z,57.91
2022-11-05T12:03:00.536Z,58.52
2022-11-05T12:05:39.488Z,57.39
2022-11-05T12:08:10.902Z,57.87
2022-11-05T12:10:49.006Z,58.03
2022-11-05T12:13:20.973Z,56.51
2022-11-05T12:15:55.385Z,56.75
2022-11-05T12:18:48.030Z,56.00
2022-11-05T12:21:34.865Z,56.42
2022-11-05T12:24:33.412Z,54.52
2022-11-05T12:27:04.879Z,57.34
2022-11-05T12:29:52.303Z,55.69
2022-11-05T12:32:26.901Z,53.33
2022-11-05T12:35:01.959Z,52.78
2022-11-05T12:37:31.054Z,51.24
2022-11-05T12:40:17.881Z,51.44
2022-11-05T12:42:52.278Z,51.62
2022-11-05T12:45:20.872Z,53.25
2022-11-05T12:47:49.242Z,54.07
2022-11-05T12:50:36.341Z,52.92
2022-11-05T12:53:04.579Z,54.34
2022-11-05T12:55:38.237Z,53.04
2022-11-05T12:58:13.884Z,53.70
2022-11-05T13:00:45.441Z,52.79
2022-11-05T13:03:29.176Z,54.74
2022-11-05T13:06:05.660Z,55.72
2022-11-05T13:08:57.488Z,53.60
2022-11-05T13:11:35.586Z,55.30
2022-11-05T13:14:10.111Z,55.68
2022-11-05T13:17:04.629Z,56.28
2022-11-05T13:19:54.483Z,56.82
2022-11-05T13:22:35.245Z,56.97
2022-11-05T13:25:12.838Z,57.24
2022-11-05T13:27:45.208Z,57.69
2022-11-05T13:30:17.281Z,57.64
2022-11-05T13:32:48.656Z,58.60
2022-11-05T13:35:20.658Z,59.28
2022-11-05T13:38:11.193Z,59.78
2022-11-05T13:40:39.560Z,60.36
2022-11-05T13:43:08.041Z,60.67
2022-11-05T13:45:55.263Z,60.99
2022-11-05T13:48:42.640Z,61.52
2022-11-05T13:51:20.595Z,62.39
2022-11-05T13:53:59.820Z,62.38
2022-11-05T13:56:42.839Z,63.15
2022-11-05T13:59:11.325Z,63.60
2022-11-05T14:01:49.641Z,63.32
2022-11-05T14:04:27.535Z,64.09
2022-11-05T14:07:05.643Z,64.60
2022-11-05T14:09:35.255Z,65.23
2022-11-05T14:12:05.408Z,65.42
2022-11-05T14:14:44.403Z,65.68
2022-11-05T14:17:21.581Z,65.91
2022-11-05T14:19:50.373Z,66.03
2022-11-05T14:22:30.120Z,66.16
2022-11-05T14:24:59.459Z,65.99
2022-11-05T14:27:37.009Z,66.30
2022-11-05T14:30:25.461Z,65.99
2022-11-05T14:33:02.952Z,65.91
2022-11-05T14:35:38.086Z,65.89
2022-11-05T14:38:18.246Z,66.01
2022-11-05T14:40:47.855Z,65.85
2022-11-05T14:43:19.198Z,66.24
2022-11-05T14:46:04.368Z,66.25
2022-11-05T14:48:41.344Z,66.13
2022-11-05T14:51:27.239Z,66.12
2022-11-05T14:54:03.806Z,66.06
2022-11-05T14:56:45.814Z,65.95
2022-11-05T14:59:31.813Z,66.06
2022-11-05T15:02:16.086Z,66.22
2022-11-05T15:04:48.137Z,66.76
2022-11-05T15:07:22.541Z,67.36
2022-11-05T15:09:54.186Z,67.37
2022-11-05T15:12:25.843Z,67.46
2022-11-05T15:14:55.148Z,67.43
2022-11-05T15:17:58.443Z,67.49
2022-11-05T15:20:40.115Z,68.50
2022-11-05T15:23:11.895Z,68.90
2022-11-05T15:25:55.526Z,69.02
2022-11-05T15:28:38.137Z,68.99
2022-11-05T15:31:12.355Z,68.48
2022-11-05T15:33:41.550Z,68.56
2022-11-05T15:36:11.775Z,68.95
2022-11-05T15:38:45.451Z,69.02
2022-11-05T15:41:32.383Z,69.62
2022-11-05T15:44:02.520Z,70.34
2022-11-05T15:46:31.199Z,70.46
2022-11-05T15:49:03.356Z,70.46
2022-11-05T15:51:31.733Z,70.96
2022-11-05T15:54:24.393Z,71.51
2022-11-05T15:56:57.475Z,71.99
2022-11-05T15:59:26.669Z,72.11
2022-11-05T16:02:03.540Z,71.87
2022-11-05T16:04:34.792Z,72.31
2022-11-05T16:07:11.566Z,72.99
2022-11-05T16:09:41.892Z,73.02
2022-11-05T16:12:13.543Z,72.49
2022-11-05T16:14:42.434Z,72.93
2022-11-05T16:17:21.873Z,73.72
2022-11-05T16:19:51.073Z,73.83
2022-11-05T16:22:19.444Z,73.75
2022-11-05T16:24:48.235Z,74.26
2022-11-05T16:27:20.649Z,73.92
2022-11-05T16:29:54.103Z,74.67
2022-11-05T16:32:30.685Z,75.68
2022-11-05T16:35:01.202Z,76.04
2022-11-05T16:37:31.431Z,75.09
2022-11-05T16:40:00.204Z,75.58
2022-11-05T16:42:36.681Z,75.21
2022-11-05T16:45:05.472Z,75.06
2022-11-05T16:47:34.371Z,74.98
2022-11-05T16:50:09.804Z,75.22
2022-11-05T16:52:38.287Z,75.14
2022-11-05T16:55:06.870Z,75.32
2022-11-05T16:57:35.248Z,75.14
2022-11-05T17:00:04.961Z,75.52
2022-11-05T17:02:33.638Z,76.03
2022-11-05T17:05:02.429Z,76.81
2022-11-05T17:07:31.014Z,76.50
2022-11-05T17:09:59.390Z,76.25
2022-11-05T17:12:27.773Z,76.48
2022-11-05T17:14:56.043Z,76.93
2022-11-05T17:17:24.626Z,76.89
2022-11-05T17:19:53.008Z,77.40
2022-11-05T17:22:21.383Z,78.00
2022-11-05T17:24:49.763Z,78.31
2022-11-05T17:27:18.243Z,78.35
2022-11-05T17:29:47.341Z,78.88
2022-11-05T17:32:15.614Z,78.91
2022-11-05T17:34:43.993Z,80.09
2022-11-05T17:37:12.375Z,79.88
2022-11-05T17:39:40.868Z,78.74
2022-11-05T17:42:09.124Z,78.32
2022-11-05T17:44:38.123Z,78.54
2022-11-05T17:47:06.502Z,80.23
2022-11-05T17:49:34.884Z,79.46
2022-11-05T17:52:03.358Z,79.96
2022-11-05T17:54:31.732Z,81.46
2022-11-05T17:57:00.215Z,81.86
2022-11-05T17:59:28.696Z,81.20
2022-11-05T18:01:57.837Z,80.55
2022-11-05T18:04:26.480Z,82.35
2022-11-05T18:06:55.064Z,82.86
2022-11-05T18:09:23.441Z,81.78
2022-11-05T18:11:51.920Z,81.48
2022-11-05T18:14:24.004Z,82.05
2022-11-05T18:16:55.453Z,82.60
2022-11-05T18:19:23.913Z,83.14
2022-11-05T18:21:52.295Z,85.38
2022-11-05T18:24:20.673Z,84.94
2022-11-05T18:26:49.463Z,84.89
2022-11-05T18:29:17.836Z,86.00
2022-11-05T18:31:46.175Z,86.99
2022-11-05T18:34:14.493Z,87.87
2022-11-05T18:36:43.893Z,88.52
2022-11-05T18:39:12.887Z,88.25
2022-11-05T18:41:41.366Z,88.72
2022-11-05T18:44:10.260Z,90.59
2022-11-05T18:49:27.699Z,91.03
2022-11-05T18:51:55.977Z,89.90
2022-11-05T18:54:24.456Z,88.60
2022-11-05T18:56:52.837Z,88.05
2022-11-05T18:59:38.999Z,88.30
2022-11-05T19:02:09.373Z,87.83
2022-11-05T19:04:38.141Z,87.75
2022-11-05T19:07:07.341Z,87.73
2022-11-05T19:09:36.650Z,87.99
2022-11-05T19:12:05.735Z,87.80
2022-11-05T19:14:34.730Z,87.37
2022-11-05T19:17:03.412Z,87.11
2022-11-05T19:19:32.098Z,86.88
2022-11-05T19:22:00.477Z,86.42
2022-11-05T19:24:28.958Z,85.81
2022-11-05T19:26:57.543Z,85.37
2022-11-05T19:29:25.920Z,85.72
2022-11-05T19:31:54.709Z,85.22
2022-11-05T19:34:22.981Z,84.90
2022-11-05T19:36:51.362Z,85.16
2022-11-05T19:39:19.844Z,85.70
2022-11-05T19:41:49.245Z,85.92
2022-11-05T19:44:17.728Z,85.99
2022-11-05T19:46:46.205Z,85.70
2022-11-05T19:49:14.591Z,85.76
2022-11-05T19:51:42.970Z,86.69
2022-11-05T19:54:11.548Z,86.37
2022-11-05T19:56:40.128Z,86.15
2022-11-05T19:59:08.982Z,86.22
2022-11-05T20:01:37.540Z,86.44
2022-11-05T20:04:06.270Z,86.78
2022-11-05T20:06:38.052Z,87.22
2022-11-05T20:09:21.635Z,86.75
2022-11-05T20:11:53.544Z,86.57
2022-11-05T20:14:23.155Z,86.96
2022-11-05T20:16:51.838Z,87.06
2022-11-05T20:19:21.345Z,87.29
2022-11-05T20:21:49.737Z,87.52
2022-11-05T20:24:24.271Z,87.28
2022-11-05T20:26:54.667Z,88.38
2022-11-05T20:29:23.760Z,88.60
2022-11-05T20:31:52.972Z,89.27
2022-11-05T20:34:21.335Z,89.26
2022-11-05T20:36:49.724Z,88.91
2022-11-05T20:39:18.607Z,88.37
2022-11-05T20:41:47.599Z,88.16
2022-11-05T20:44:16.181Z,88.18
2022-11-05T20:46:44.559Z,89.32
2022-11-05T20:49:12.965Z,87.76
2022-11-05T20:51:41.929Z,87.50
2022-11-05T20:54:10.517Z,87.78
2022-11-05T20:56:39.200Z,88.97
2022-11-05T20:59:07.783Z,88.98
2022-11-05T21:01:36.260Z,90.52
2022-11-05T21:04:05.573Z,89.28
2022-11-05T21:06:35.289Z,89.06
2022-11-05T21:09:04.579Z,89.60
2022-11-05T21:11:52.922Z,88.70
2022-11-05T21:14:21.399Z,88.52
2022-11-05T21:16:50.083Z,87.87
2022-11-05T21:19:18.361Z,87.60
2022-11-05T21:21:48.073Z,87.60
2022-11-05T21:24:16.554Z,88.28
2022-11-05T21:26:45.033Z,87.46
2022-11-05T21:29:13.515Z,88.01
2022-11-05T21:31:42.309Z,88.37
2022-11-05T21:34:11.109Z,89.23
2022-11-05T21:36:40.602Z,88.72
2022-11-05T21:39:13.219Z,88.80
2022-11-05T21:41:42.985Z,89.11
2022-11-05T21:44:11.667Z,89.11
2022-11-05T21:46:40.064Z,88.92
2022-11-05T21:49:08.626Z,89.02
2022-11-05T21:51:55.746Z,88.98
2022-11-05T21:54:43.275Z,88.75
2022-11-05T21:57:34.383Z,89.07
2022-11-05T22:00:06.049Z,88.95
2022-11-05T22:02:34.911Z,89.03
2022-11-05T22:05:04.126Z,89.84
2022-11-05T22:07:34.251Z,89.80
2022-11-05T22:10:03.957Z,88.91
2022-11-05T22:12:32.747Z,88.88
2022-11-05T22:15:01.224Z,89.01
2022-11-05T22:17:29.812Z,89.62
2022-11-05T22:19:58.729Z,89.53
2022-11-05T22:22:27.385Z,90.31
2022-11-05T22:24:55.965Z,90.05
2022-11-05T22:27:24.346Z,90.68
2022-11-05T22:29:52.737Z,92.28
2022-11-05T22:32:21.624Z,91.88
2022-11-05T22:34:50.098Z,91.88
2022-11-05T22:37:18.786Z,91.73
2022-11-05T22:39:48.948Z,92.44
2022-11-05T22:42:17.698Z,92.42
2022-11-05T22:44:46.376Z,92.74
2022-11-05T22:47:15.477Z,92.95
2022-11-05T22:49:44.263Z,93.01
2022-11-05T22:52:13.865Z,94.64
2022-11-05T22:54:42.449Z,93.85
2022-11-05T22:57:11.027Z,93.96
2022-11-05T22:59:39.515Z,92.97
2022-11-05T23:02:10.201Z,93.13
2022-11-05T23:04:39.667Z,93.16
2022-11-05T23:07:29.740Z,93.03
2022-11-05T23:10:17.169Z,93.93
2022-11-05T23:12:46.158Z,93.15
2022-11-05T23:15:34.709Z,91.84
2022-11-05T23:18:22.136Z,91.01
2022-11-05T23:21:10.994Z,92.26
2022-11-05T23:24:16.128Z,92.96
2022-11-05T23:26:50.557Z,93.03
2022-11-05T23:29:20.155Z,93.61
2022-11-05T23:32:07.478Z,93.47
2022-11-05T23:34:36.473Z,92.95
2022-11-05T23:37:24.107Z,94.95
2022-11-05T23:39:52.840Z,94.23
2022-11-05T23:42:40.311Z,93.99
2022-11-05T23:45:28.842Z,94.44
2022-11-05T23:48:17.830Z,97.10
2022-11-05T23:50:56.446Z,95.65
2022-11-05T23:53:27.102Z,96.04
2022-11-05T23:56:03.336Z,93.73
2022-11-05T23:58:32.527Z,94.34
